sensor_id;sensor_type;location;lat;lon;timestamp;temperature;humidity
16503;DHT22;53067;48.114;11.694;2023-01-19T00:00:39;2.00;77.60
16503;DHT22;53067;48.114;11.694;2023-01-19T00:03:07;2.00;77.50
16503;DHT22;53067;48.114;11.694;2023-01-19T00:05:36;2.10;76.90
16503;DHT22;53067;48.114;11.694;2023-01-19T00:08:03;2.10;77.10
16503;DHT22;53067;48.114;11.694;2023-01-19T00:10:33;2.10;76.90
16503;DHT22;53067;48.114;11.694;2023-01-19T00:13:00;2.10;76.30
16503;DHT22;53067;48.114;11.694;2023-01-19T00:15:28;2.10;76.50
16503;DHT22;53067;48.114;11.694;2023-01-19T00:17:55;2.10;76.30
16503;DHT22;53067;48.114;11.694;2023-01-19T00:20:23;2.00;76.50
16503;DHT22;53067;48.114;11.694;2023-01-19T00:22:50;2.00;76.50
16503;DHT22;53067;48.114;11.694;2023-01-19T00:25:18;2.00;76.40
16503;DHT22;53067;48.114;11.694;2023-01-19T00:27:45;2.00;76.50
16503;DHT22;53067;48.114;11.694;2023-01-19T00:30:15;2.00;76.40
16503;DHT22;53067;48.114;11.694;2023-01-19T00:32:42;2.00;76.60
16503;DHT22;53067;48.114;11.694;2023-01-19T00:35:10;2.00;76.40
16503;DHT22;53067;48.114;11.694;2023-01-19T00:37:37;1.90;76.20
16503;DHT22;53067;48.114;11.694;2023-01-19T00:40:06;1.90;76.50
16503;DHT22;53067;48.114;11.694;2023-01-19T00:42:34;1.90;76.00
16503;DHT22;53067;48.114;11.694;2023-01-19T00:45:14;2.00;76.40
16503;DHT22;53067;48.114;11.694;2023-01-19T00:47:44;2.00;76.20
16503;DHT22;53067;48.114;11.694;2023-01-19T00:50:13;2.00;75.60
16503;DHT22;53067;48.114;11.694;2023-01-19T00:52:43;2.00;75.90
16503;DHT22;53067;48.114;11.694;2023-01-19T00:55:12;1.90;75.70
16503;DHT22;53067;48.114;11.694;2023-01-19T00:57:41;1.90;76.10
16503;DHT22;53067;48.114;11.694;2023-01-19T01:00:14;1.90;76.00
16503;DHT22;53067;48.114;11.694;2023-01-19T01:02:43;2.00;76.20
16503;DHT22;53067;48.114;11.694;2023-01-19T01:05:12;2.10;76.10
16503;DHT22;53067;48.114;11.694;2023-01-19T01:07:40;2.10;75.70
16503;DHT22;53067;48.114;11.694;2023-01-19T01:10:13;2.10;75.60
16503;DHT22;53067;48.114;11.694;2023-01-19T01:12:40;2.10;75.40
16503;DHT22;53067;48.114;11.694;2023-01-19T01:15:09;2.10;75.20
16503;DHT22;53067;48.114;11.694;2023-01-19T01:17:38;2.10;75.50
16503;DHT22;53067;48.114;11.694;2023-01-19T01:20:15;2.10;76.00
16503;DHT22;53067;48.114;11.694;2023-01-19T01:22:43;2.10;75.90
16503;DHT22;53067;48.114;11.694;2023-01-19T01:25:15;2.10;75.30
16503;DHT22;53067;48.114;11.694;2023-01-19T01:27:43;2.10;75.90
16503;DHT22;53067;48.114;11.694;2023-01-19T01:30:12;2.20;75.80
16503;DHT22;53067;48.114;11.694;2023-01-19T01:32:40;2.20;75.80
16503;DHT22;53067;48.114;11.694;2023-01-19T01:35:08;2.20;75.90
16503;DHT22;53067;48.114;11.694;2023-01-19T01:37:36;2.30;75.90
16503;DHT22;53067;48.114;11.694;2023-01-19T01:40:05;2.30;75.60
16503;DHT22;53067;48.114;11.694;2023-01-19T01:42:33;2.20;76.00
16503;DHT22;53067;48.114;11.694;2023-01-19T01:45:04;2.20;76.00
16503;DHT22;53067;48.114;11.694;2023-01-19T01:47:40;2.10;76.20
16503;DHT22;53067;48.114;11.694;2023-01-19T01:50:11;2.10;76.20
16503;DHT22;53067;48.114;11.694;2023-01-19T01:52:44;2.10;77.00
16503;DHT22;53067;48.114;11.694;2023-01-19T01:55:12;2.10;77.10
16503;DHT22;53067;48.114;11.694;2023-01-19T01:57:42;2.10;77.90
16503;DHT22;53067;48.114;11.694;2023-01-19T02:00:11;2.00;77.90
16503;DHT22;53067;48.114;11.694;2023-01-19T02:02:39;2.00;78.10
16503;DHT22;53067;48.114;11.694;2023-01-19T02:05:23;2.00;78.30
16503;DHT22;53067;48.114;11.694;2023-01-19T02:08:18;2.00;78.40
16503;DHT22;53067;48.114;11.694;2023-01-19T02:11:04;2.00;78.40
16503;DHT22;53067;48.114;11.694;2023-01-19T02:13:50;1.90;78.40
16503;DHT22;53067;48.114;11.694;2023-01-19T02:16:17;1.90;78.80
16503;DHT22;53067;48.114;11.694;2023-01-19T02:18:45;1.90;79.20
16503;DHT22;53067;48.114;11.694;2023-01-19T02:23:57;1.80;79.30
16503;DHT22;53067;48.114;11.694;2023-01-19T02:26:28;1.80;79.20
16503;DHT22;53067;48.114;11.694;2023-01-19T02:29:05;1.80;79.60
16503;DHT22;53067;48.114;11.694;2023-01-19T02:31:34;1.80;79.50
16503;DHT22;53067;48.114;11.694;2023-01-19T02:34:04;1.80;79.80
16503;DHT22;53067;48.114;11.694;2023-01-19T02:39:16;1.70;79.80
16503;DHT22;53067;48.114;11.694;2023-01-19T02:41:51;1.70;79.80
16503;DHT22;53067;48.114;11.694;2023-01-19T02:44:16;1.70;79.40
16503;DHT22;53067;48.114;11.694;2023-01-19T02:46:44;1.70;79.80
16503;DHT22;53067;48.114;11.694;2023-01-19T02:49:12;1.70;79.50
16503;DHT22;53067;48.114;11.694;2023-01-19T02:51:41;1.70;79.90
16503;DHT22;53067;48.114;11.694;2023-01-19T02:54:16;1.70;79.20
16503;DHT22;53067;48.114;11.694;2023-01-19T02:57:02;1.60;79.20
16503;DHT22;53067;48.114;11.694;2023-01-19T02:59:43;1.50;79.50
16503;DHT22;53067;48.114;11.694;2023-01-19T03:05:01;1.40;80.30
16503;DHT22;53067;48.114;11.694;2023-01-19T03:07:49;1.30;80.10
16503;DHT22;53067;48.114;11.694;2023-01-19T03:13:10;1.30;79.90
16503;DHT22;53067;48.114;11.694;2023-01-19T03:18:10;1.30;79.80
16503;DHT22;53067;48.114;11.694;2023-01-19T03:20:41;1.40;79.70
16503;DHT22;53067;48.114;11.694;2023-01-19T03:23:11;1.40;79.40
16503;DHT22;53067;48.114;11.694;2023-01-19T03:25:41;1.40;79.30
16503;DHT22;53067;48.114;11.694;2023-01-19T03:28:10;1.40;79.10
16503;DHT22;53067;48.114;11.694;2023-01-19T03:30:44;1.40;78.80
16503;DHT22;53067;48.114;11.694;2023-01-19T03:33:24;1.40;78.80
16503;DHT22;53067;48.114;11.694;2023-01-19T03:35:56;1.40;78.60
16503;DHT22;53067;48.114;11.694;2023-01-19T03:38:26;1.40;78.50
16503;DHT22;53067;48.114;11.694;2023-01-19T03:40:57;1.40;78.60
16503;DHT22;53067;48.114;11.694;2023-01-19T03:43:26;1.30;77.90
16503;DHT22;53067;48.114;11.694;2023-01-19T03:45:55;1.30;78.40
16503;DHT22;53067;48.114;11.694;2023-01-19T03:48:23;1.30;78.20
16503;DHT22;53067;48.114;11.694;2023-01-19T03:50:52;1.30;78.20
16503;DHT22;53067;48.114;11.694;2023-01-19T03:53:20;1.30;78.20
16503;DHT22;53067;48.114;11.694;2023-01-19T03:55:51;1.30;78.30
16503;DHT22;53067;48.114;11.694;2023-01-19T03:58:19;1.30;78.40
16503;DHT22;53067;48.114;11.694;2023-01-19T04:00:47;1.30;78.00
16503;DHT22;53067;48.114;11.694;2023-01-19T04:03:16;1.30;78.30
16503;DHT22;53067;48.114;11.694;2023-01-19T04:05:45;1.30;78.10
16503;DHT22;53067;48.114;11.694;2023-01-19T04:08:13;1.20;78.90
16503;DHT22;53067;48.114;11.694;2023-01-19T04:10:40;1.20;78.30
16503;DHT22;53067;48.114;11.694;2023-01-19T04:13:08;1.20;78.30
16503;DHT22;53067;48.114;11.694;2023-01-19T04:15:36;1.20;78.40
16503;DHT22;53067;48.114;11.694;2023-01-19T04:18:04;1.20;78.70
16503;DHT22;53067;48.114;11.694;2023-01-19T04:20:32;1.20;78.90
16503;DHT22;53067;48.114;11.694;2023-01-19T04:23:00;1.20;78.70
16503;DHT22;53067;48.114;11.694;2023-01-19T04:25:27;1.20;78.80
16503;DHT22;53067;48.114;11.694;2023-01-19T04:27:55;1.20;78.60
16503;DHT22;53067;48.114;11.694;2023-01-19T04:30:26;1.20;78.40
16503;DHT22;53067;48.114;11.694;2023-01-19T04:32:54;1.20;78.30
16503;DHT22;53067;48.114;11.694;2023-01-19T04:35:21;1.10;78.60
16503;DHT22;53067;48.114;11.694;2023-01-19T04:37:49;1.10;78.70
16503;DHT22;53067;48.114;11.694;2023-01-19T04:40:17;1.00;78.70
16503;DHT22;53067;48.114;11.694;2023-01-19T04:42:44;0.90;78.80
16503;DHT22;53067;48.114;11.694;2023-01-19T04:45:13;0.90;78.90
16503;DHT22;53067;48.114;11.694;2023-01-19T04:47:40;0.90;79.00
16503;DHT22;53067;48.114;11.694;2023-01-19T04:50:09;0.90;79.20
16503;DHT22;53067;48.114;11.694;2023-01-19T04:52:37;0.90;79.50
16503;DHT22;53067;48.114;11.694;2023-01-19T04:55:06;0.80;79.50
16503;DHT22;53067;48.114;11.694;2023-01-19T04:57:34;0.90;79.50
16503;DHT22;53067;48.114;11.694;2023-01-19T05:00:01;0.90;79.30
16503;DHT22;53067;48.114;11.694;2023-01-19T05:02:29;0.90;79.30
16503;DHT22;53067;48.114;11.694;2023-01-19T05:04:57;0.90;79.20
16503;DHT22;53067;48.114;11.694;2023-01-19T05:07:24;1.00;79.10
16503;DHT22;53067;48.114;11.694;2023-01-19T05:09:52;1.00;78.80
16503;DHT22;53067;48.114;11.694;2023-01-19T05:12:20;1.00;78.70
16503;DHT22;53067;48.114;11.694;2023-01-19T05:14:47;1.10;78.50
16503;DHT22;53067;48.114;11.694;2023-01-19T05:17:15;1.00;78.40
16503;DHT22;53067;48.114;11.694;2023-01-19T05:19:43;1.00;78.40
16503;DHT22;53067;48.114;11.694;2023-01-19T05:22:10;1.00;78.50
16503;DHT22;53067;48.114;11.694;2023-01-19T05:24:38;1.00;78.50
16503;DHT22;53067;48.114;11.694;2023-01-19T05:27:05;1.00;79.00
16503;DHT22;53067;48.114;11.694;2023-01-19T05:29:33;1.00;78.40
16503;DHT22;53067;48.114;11.694;2023-01-19T05:32:00;1.00;78.90
16503;DHT22;53067;48.114;11.694;2023-01-19T05:34:28;0.90;79.20
16503;DHT22;53067;48.114;11.694;2023-01-19T05:36:55;1.00;79.50
16503;DHT22;53067;48.114;11.694;2023-01-19T05:39:23;0.90;79.40
16503;DHT22;53067;48.114;11.694;2023-01-19T05:41:52;0.90;79.50
16503;DHT22;53067;48.114;11.694;2023-01-19T05:44:19;0.90;79.30
16503;DHT22;53067;48.114;11.694;2023-01-19T05:46:47;0.90;79.20
16503;DHT22;53067;48.114;11.694;2023-01-19T05:49:15;0.90;79.10
16503;DHT22;53067;48.114;11.694;2023-01-19T05:51:42;0.90;79.10
16503;DHT22;53067;48.114;11.694;2023-01-19T05:54:13;1.00;79.20
16503;DHT22;53067;48.114;11.694;2023-01-19T05:56:41;1.00;78.60
16503;DHT22;53067;48.114;11.694;2023-01-19T05:59:10;1.00;78.60
16503;DHT22;53067;48.114;11.694;2023-01-19T06:01:37;1.00;78.70
16503;DHT22;53067;48.114;11.694;2023-01-19T06:04:05;1.00;78.80
16503;DHT22;53067;48.114;11.694;2023-01-19T06:06:33;0.90;79.50
16503;DHT22;53067;48.114;11.694;2023-01-19T06:09:00;0.90;78.70
16503;DHT22;53067;48.114;11.694;2023-01-19T06:11:28;0.80;78.80
16503;DHT22;53067;48.114;11.694;2023-01-19T06:13:55;0.90;78.90
16503;DHT22;53067;48.114;11.694;2023-01-19T06:16:23;0.90;78.80
16503;DHT22;53067;48.114;11.694;2023-01-19T06:18:50;0.90;79.10
16503;DHT22;53067;48.114;11.694;2023-01-19T06:21:19;0.80;79.00
16503;DHT22;53067;48.114;11.694;2023-01-19T06:23:46;0.70;79.30
16503;DHT22;53067;48.114;11.694;2023-01-19T06:26:14;0.80;79.60
16503;DHT22;53067;48.114;11.694;2023-01-19T06:28:41;0.70;79.70
16503;DHT22;53067;48.114;11.694;2023-01-19T06:31:09;0.70;79.50
16503;DHT22;53067;48.114;11.694;2023-01-19T06:33:36;0.80;79.50
16503;DHT22;53067;48.114;11.694;2023-01-19T06:36:04;0.80;79.40
16503;DHT22;53067;48.114;11.694;2023-01-19T06:38:32;0.80;79.10
16503;DHT22;53067;48.114;11.694;2023-01-19T06:40:59;0.80;79.10
16503;DHT22;53067;48.114;11.694;2023-01-19T06:43:30;0.70;79.10
16503;DHT22;53067;48.114;11.694;2023-01-19T06:45:58;0.80;79.20
16503;DHT22;53067;48.114;11.694;2023-01-19T06:48:30;0.80;79.10
16503;DHT22;53067;48.114;11.694;2023-01-19T06:50:57;0.80;79.10
16503;DHT22;53067;48.114;11.694;2023-01-19T06:53:25;0.80;79.10
16503;DHT22;53067;48.114;11.694;2023-01-19T06:55:59;0.80;78.90
16503;DHT22;53067;48.114;11.694;2023-01-19T06:58:30;0.70;78.90
16503;DHT22;53067;48.114;11.694;2023-01-19T07:01:02;0.80;78.30
16503;DHT22;53067;48.114;11.694;2023-01-19T07:03:30;0.80;78.50
16503;DHT22;53067;48.114;11.694;2023-01-19T07:05:58;0.80;78.50
16503;DHT22;53067;48.114;11.694;2023-01-19T07:08:28;0.90;78.40
16503;DHT22;53067;48.114;11.694;2023-01-19T07:11:08;0.90;78.10
16503;DHT22;53067;48.114;11.694;2023-01-19T07:13:33;0.80;78.00
16503;DHT22;53067;48.114;11.694;2023-01-19T07:16:11;0.70;78.30
16503;DHT22;53067;48.114;11.694;2023-01-19T07:18:36;0.70;78.50
16503;DHT22;53067;48.114;11.694;2023-01-19T07:21:04;0.70;78.60
16503;DHT22;53067;48.114;11.694;2023-01-19T07:23:31;0.80;78.50
16503;DHT22;53067;48.114;11.694;2023-01-19T07:26:00;0.80;78.10
16503;DHT22;53067;48.114;11.694;2023-01-19T07:28:29;0.80;77.90
16503;DHT22;53067;48.114;11.694;2023-01-19T07:30:57;0.80;77.80
16503;DHT22;53067;48.114;11.694;2023-01-19T07:33:25;0.80;77.50
16503;DHT22;53067;48.114;11.694;2023-01-19T07:35:53;0.80;77.00
16503;DHT22;53067;48.114;11.694;2023-01-19T07:38:21;0.80;77.00
16503;DHT22;53067;48.114;11.694;2023-01-19T07:40:48;0.70;76.80
16503;DHT22;53067;48.114;11.694;2023-01-19T07:43:16;0.60;77.30
16503;DHT22;53067;48.114;11.694;2023-01-19T07:45:43;0.70;77.60
16503;DHT22;53067;48.114;11.694;2023-01-19T07:48:11;0.70;77.10
16503;DHT22;53067;48.114;11.694;2023-01-19T07:50:39;0.70;76.90
16503;DHT22;53067;48.114;11.694;2023-01-19T07:53:07;0.70;77.40
16503;DHT22;53067;48.114;11.694;2023-01-19T07:55:37;0.70;76.50
16503;DHT22;53067;48.114;11.694;2023-01-19T07:58:04;0.70;76.10
16503;DHT22;53067;48.114;11.694;2023-01-19T08:00:34;0.80;76.20
16503;DHT22;53067;48.114;11.694;2023-01-19T08:03:03;0.80;76.00
16503;DHT22;53067;48.114;11.694;2023-01-19T08:05:32;0.80;76.00
16503;DHT22;53067;48.114;11.694;2023-01-19T08:08:00;0.70;75.20
16503;DHT22;53067;48.114;11.694;2023-01-19T08:10:28;0.60;75.10
16503;DHT22;53067;48.114;11.694;2023-01-19T08:12:56;0.60;75.40
16503;DHT22;53067;48.114;11.694;2023-01-19T08:15:25;0.70;75.40
16503;DHT22;53067;48.114;11.694;2023-01-19T08:18:00;0.70;75.00
16503;DHT22;53067;48.114;11.694;2023-01-19T08:20:31;0.70;74.70
16503;DHT22;53067;48.114;11.694;2023-01-19T08:22:59;0.80;75.10
16503;DHT22;53067;48.114;11.694;2023-01-19T08:25:37;0.80;74.60
16503;DHT22;53067;48.114;11.694;2023-01-19T08:28:05;0.80;74.00
16503;DHT22;53067;48.114;11.694;2023-01-19T08:30:34;0.80;74.50
16503;DHT22;53067;48.114;11.694;2023-01-19T08:33:02;0.80;74.50
16503;DHT22;53067;48.114;11.694;2023-01-19T08:35:30;0.90;74.40
16503;DHT22;53067;48.114;11.694;2023-01-19T08:37:58;0.90;73.40
16503;DHT22;53067;48.114;11.694;2023-01-19T08:40:28;0.90;73.90
16503;DHT22;53067;48.114;11.694;2023-01-19T08:43:00;1.00;73.50
16503;DHT22;53067;48.114;11.694;2023-01-19T08:45:30;1.00;73.60
16503;DHT22;53067;48.114;11.694;2023-01-19T08:47:58;1.00;73.10
16503;DHT22;53067;48.114;11.694;2023-01-19T08:50:27;1.00;73.40
16503;DHT22;53067;48.114;11.694;2023-01-19T08:52:59;1.10;73.00
16503;DHT22;53067;48.114;11.694;2023-01-19T08:55:28;1.10;72.60
16503;DHT22;53067;48.114;11.694;2023-01-19T08:57:57;1.10;72.80
16503;DHT22;53067;48.114;11.694;2023-01-19T09:00:25;1.00;72.50
16503;DHT22;53067;48.114;11.694;2023-01-19T09:02:53;1.00;72.60
16503;DHT22;53067;48.114;11.694;2023-01-19T09:05:22;1.10;73.10
16503;DHT22;53067;48.114;11.694;2023-01-19T09:07:50;1.10;72.20
16503;DHT22;53067;48.114;11.694;2023-01-19T09:10:18;1.00;71.70
16503;DHT22;53067;48.114;11.694;2023-01-19T09:12:46;0.90;72.20
16503;DHT22;53067;48.114;11.694;2023-01-19T09:15:13;0.90;72.90
16503;DHT22;53067;48.114;11.694;2023-01-19T09:17:41;1.00;72.90
16503;DHT22;53067;48.114;11.694;2023-01-19T09:20:09;1.00;72.60
16503;DHT22;53067;48.114;11.694;2023-01-19T09:22:37;1.10;71.40
16503;DHT22;53067;48.114;11.694;2023-01-19T09:25:06;1.20;71.40
16503;DHT22;53067;48.114;11.694;2023-01-19T09:27:34;1.20;70.60
16503;DHT22;53067;48.114;11.694;2023-01-19T09:30:03;1.10;70.40
16503;DHT22;53067;48.114;11.694;2023-01-19T09:32:31;1.20;70.70
16503;DHT22;53067;48.114;11.694;2023-01-19T09:34:58;1.20;70.50
16503;DHT22;53067;48.114;11.694;2023-01-19T09:37:26;1.30;70.60
16503;DHT22;53067;48.114;11.694;2023-01-19T09:39:53;1.40;69.60
16503;DHT22;53067;48.114;11.694;2023-01-19T09:42:37;1.50;69.10
16503;DHT22;53067;48.114;11.694;2023-01-19T09:45:37;1.60;69.00
16503;DHT22;53067;48.114;11.694;2023-01-19T09:48:19;1.60;68.60
16503;DHT22;53067;48.114;11.694;2023-01-19T09:50:37;1.70;68.10
16503;DHT22;53067;48.114;11.694;2023-01-19T09:53:15;1.70;68.40
16503;DHT22;53067;48.114;11.694;2023-01-19T09:55:42;1.70;67.40
16503;DHT22;53067;48.114;11.694;2023-01-19T09:58:12;1.70;67.30
16503;DHT22;53067;48.114;11.694;2023-01-19T10:00:53;1.80;67.30
16503;DHT22;53067;48.114;11.694;2023-01-19T10:03:21;1.90;67.00
16503;DHT22;53067;48.114;11.694;2023-01-19T10:05:53;2.00;66.60
16503;DHT22;53067;48.114;11.694;2023-01-19T10:11:43;2.10;66.80
16503;DHT22;53067;48.114;11.694;2023-01-19T10:14:11;2.10;66.30
16503;DHT22;53067;48.114;11.694;2023-01-19T10:16:45;2.20;65.90
16503;DHT22;53067;48.114;11.694;2023-01-19T10:19:37;2.20;66.10
16503;DHT22;53067;48.114;11.694;2023-01-19T10:22:18;2.20;65.50
16503;DHT22;53067;48.114;11.694;2023-01-19T10:24:40;2.10;65.00
16503;DHT22;53067;48.114;11.694;2023-01-19T10:27:17;2.00;65.50
16503;DHT22;53067;48.114;11.694;2023-01-19T10:29:45;2.00;64.90
16503;DHT22;53067;48.114;11.694;2023-01-19T10:32:31;2.00;64.80
16503;DHT22;53067;48.114;11.694;2023-01-19T10:34:56;2.10;65.10
16503;DHT22;53067;48.114;11.694;2023-01-19T10:42:40;2.50;63.60
16503;DHT22;53067;48.114;11.694;2023-01-19T10:45:19;2.60;63.70
16503;DHT22;53067;48.114;11.694;2023-01-19T10:47:48;2.60;62.80
16503;DHT22;53067;48.114;11.694;2023-01-19T10:50:30;2.70;63.00
16503;DHT22;53067;48.114;11.694;2023-01-19T10:53:00;2.80;61.50
16503;DHT22;53067;48.114;11.694;2023-01-19T10:55:40;3.00;62.00
16503;DHT22;53067;48.114;11.694;2023-01-19T11:00:41;3.50;61.30
16503;DHT22;53067;48.114;11.694;2023-01-19T11:03:23;3.60;60.00
16503;DHT22;53067;48.114;11.694;2023-01-19T11:05:51;3.80;59.30
16503;DHT22;53067;48.114;11.694;2023-01-19T11:08:27;3.80;59.70
16503;DHT22;53067;48.114;11.694;2023-01-19T11:11:03;4.00;59.20
16503;DHT22;53067;48.114;11.694;2023-01-19T11:13:32;4.20;57.80
16503;DHT22;53067;48.114;11.694;2023-01-19T11:16:14;4.10;57.60
16503;DHT22;53067;48.114;11.694;2023-01-19T11:18:38;4.30;58.40
16503;DHT22;53067;48.114;11.694;2023-01-19T11:21:08;4.40;57.10
16503;DHT22;53067;48.114;11.694;2023-01-19T11:23:38;4.40;56.40
16503;DHT22;53067;48.114;11.694;2023-01-19T11:26:12;4.30;57.10
16503;DHT22;53067;48.114;11.694;2023-01-19T11:28:47;4.20;57.60
16503;DHT22;53067;48.114;11.694;2023-01-19T11:31:19;4.30;56.70
16503;DHT22;53067;48.114;11.694;2023-01-19T11:33:50;4.30;56.50
16503;DHT22;53067;48.114;11.694;2023-01-19T11:36:25;4.30;56.90
16503;DHT22;53067;48.114;11.694;2023-01-19T11:38:55;4.50;56.40
16503;DHT22;53067;48.114;11.694;2023-01-19T11:41:29;4.50;55.70
16503;DHT22;53067;48.114;11.694;2023-01-19T11:44:41;4.60;56.70
16503;DHT22;53067;48.114;11.694;2023-01-19T11:46:31;4.80;55.40
16503;DHT22;53067;48.114;11.694;2023-01-19T11:49:06;4.80;54.70
16503;DHT22;53067;48.114;11.694;2023-01-19T11:51:38;4.90;54.30
16503;DHT22;53067;48.114;11.694;2023-01-19T11:54:12;4.90;54.00
16503;DHT22;53067;48.114;11.694;2023-01-19T11:56:35;4.90;54.70
16503;DHT22;53067;48.114;11.694;2023-01-19T11:59:02;4.90;54.50
16503;DHT22;53067;48.114;11.694;2023-01-19T12:01:32;4.90;54.30
16503;DHT22;53067;48.114;11.694;2023-01-19T12:04:11;4.90;54.30
16503;DHT22;53067;48.114;11.694;2023-01-19T12:06:50;4.90;53.40
16503;DHT22;53067;48.114;11.694;2023-01-19T12:11:56;4.40;53.70
16503;DHT22;53067;48.114;11.694;2023-01-19T12:14:30;4.50;54.00
16503;DHT22;53067;48.114;11.694;2023-01-19T12:16:58;4.40;54.00
16503;DHT22;53067;48.114;11.694;2023-01-19T12:19:44;4.20;53.40
16503;DHT22;53067;48.114;11.694;2023-01-19T12:22:14;4.20;53.80
16503;DHT22;53067;48.114;11.694;2023-01-19T12:25:00;4.00;54.10
16503;DHT22;53067;48.114;11.694;2023-01-19T12:27:42;3.80;54.90
16503;DHT22;53067;48.114;11.694;2023-01-19T12:30:19;3.80;55.10
16503;DHT22;53067;48.114;11.694;2023-01-19T12:32:47;3.70;54.50
16503;DHT22;53067;48.114;11.694;2023-01-19T12:38:31;3.70;55.30
16503;DHT22;53067;48.114;11.694;2023-01-19T12:41:13;3.80;54.90
16503;DHT22;53067;48.114;11.694;2023-01-19T12:43:22;4.10;55.00
16503;DHT22;53067;48.114;11.694;2023-01-19T12:45:50;4.20;55.10
16503;DHT22;53067;48.114;11.694;2023-01-19T12:48:25;4.20;54.80
16503;DHT22;53067;48.114;11.694;2023-01-19T12:50:53;4.20;54.30
16503;DHT22;53067;48.114;11.694;2023-01-19T12:53:21;4.20;54.00
16503;DHT22;53067;48.114;11.694;2023-01-19T12:55:56;4.30;54.60
16503;DHT22;53067;48.114;11.694;2023-01-19T12:58:25;4.20;54.10
16503;DHT22;53067;48.114;11.694;2023-01-19T13:01:15;4.10;54.90
16503;DHT22;53067;48.114;11.694;2023-01-19T13:06:14;3.90;55.40
16503;DHT22;53067;48.114;11.694;2023-01-19T13:08:59;3.90;55.40
16503;DHT22;53067;48.114;11.694;2023-01-19T13:11:26;3.80;54.80
16503;DHT22;53067;48.114;11.694;2023-01-19T13:19:00;3.60;55.30
16503;DHT22;53067;48.114;11.694;2023-01-19T13:21:36;3.40;56.20
16503;DHT22;53067;48.114;11.694;2023-01-19T13:24:21;3.30;56.70
16503;DHT22;53067;48.114;11.694;2023-01-19T13:26:53;3.30;57.30
16503;DHT22;53067;48.114;11.694;2023-01-19T13:29:31;3.40;57.00
16503;DHT22;53067;48.114;11.694;2023-01-19T13:32:11;3.50;56.50
16503;DHT22;53067;48.114;11.694;2023-01-19T13:37:14;3.50;56.50
16503;DHT22;53067;48.114;11.694;2023-01-19T13:39:41;3.40;55.70
16503;DHT22;53067;48.114;11.694;2023-01-19T13:42:27;3.30;56.00
16503;DHT22;53067;48.114;11.694;2023-01-19T13:44:57;3.10;56.50
16503;DHT22;53067;48.114;11.694;2023-01-19T13:47:37;3.10;56.40
16503;DHT22;53067;48.114;11.694;2023-01-19T13:49:57;3.00;56.60
16503;DHT22;53067;48.114;11.694;2023-01-19T13:52:26;2.90;56.20
16503;DHT22;53067;48.114;11.694;2023-01-19T13:54:57;3.00;57.00
16503;DHT22;53067;48.114;11.694;2023-01-19T13:57:30;3.00;56.80
16503;DHT22;53067;48.114;11.694;2023-01-19T14:05:35;3.20;57.50
16503;DHT22;53067;48.114;11.694;2023-01-19T14:10:42;3.10;57.00
16503;DHT22;53067;48.114;11.694;2023-01-19T14:13:15;3.10;57.50
16503;DHT22;53067;48.114;11.694;2023-01-19T14:15:44;3.10;57.60
16503;DHT22;53067;48.114;11.694;2023-01-19T14:18:22;3.20;57.40
16503;DHT22;53067;48.114;11.694;2023-01-19T14:21:04;3.20;57.50
16503;DHT22;53067;48.114;11.694;2023-01-19T14:23:51;3.30;57.50
16503;DHT22;53067;48.114;11.694;2023-01-19T14:26:43;3.30;56.80
16503;DHT22;53067;48.114;11.694;2023-01-19T14:29:32;3.20;56.60
16503;DHT22;53067;48.114;11.694;2023-01-19T14:32:12;3.20;58.00
16503;DHT22;53067;48.114;11.694;2023-01-19T14:37:34;3.20;57.90
16503;DHT22;53067;48.114;11.694;2023-01-19T14:42:55;3.20;58.10
16503;DHT22;53067;48.114;11.694;2023-01-19T14:45:29;3.20;58.10
16503;DHT22;53067;48.114;11.694;2023-01-19T14:48:03;3.10;58.00
16503;DHT22;53067;48.114;11.694;2023-01-19T14:50:41;3.10;58.50
16503;DHT22;53067;48.114;11.694;2023-01-19T14:53:12;3.10;58.50
16503;DHT22;53067;48.114;11.694;2023-01-19T14:55:38;3.10;58.80
16503;DHT22;53067;48.114;11.694;2023-01-19T14:58:13;3.10;58.20
16503;DHT22;53067;48.114;11.694;2023-01-19T15:00:40;3.10;57.90
16503;DHT22;53067;48.114;11.694;2023-01-19T15:03:09;3.10;58.10
16503;DHT22;53067;48.114;11.694;2023-01-19T15:05:38;3.10;58.10
16503;DHT22;53067;48.114;11.694;2023-01-19T15:08:07;3.10;57.60
16503;DHT22;53067;48.114;11.694;2023-01-19T15:10:36;3.10;56.60
16503;DHT22;53067;48.114;11.694;2023-01-19T15:13:04;3.20;56.40
16503;DHT22;53067;48.114;11.694;2023-01-19T15:15:33;3.20;56.00
16503;DHT22;53067;48.114;11.694;2023-01-19T15:18:02;3.10;56.00
16503;DHT22;53067;48.114;11.694;2023-01-19T15:20:30;3.10;55.70
16503;DHT22;53067;48.114;11.694;2023-01-19T15:22:58;3.00;56.10
16503;DHT22;53067;48.114;11.694;2023-01-19T15:25:25;3.00;54.80
16503;DHT22;53067;48.114;11.694;2023-01-19T15:27:59;3.00;54.80
16503;DHT22;53067;48.114;11.694;2023-01-19T15:30:26;3.00;54.30
16503;DHT22;53067;48.114;11.694;2023-01-19T15:32:55;3.00;54.20
16503;DHT22;53067;48.114;11.694;2023-01-19T15:35:25;3.00;53.70
16503;DHT22;53067;48.114;11.694;2023-01-19T15:37:52;3.00;53.70
16503;DHT22;53067;48.114;11.694;2023-01-19T15:40:20;3.00;54.10
16503;DHT22;53067;48.114;11.694;2023-01-19T15:42:49;3.00;54.10
16503;DHT22;53067;48.114;11.694;2023-01-19T15:48:05;3.00;54.90
16503;DHT22;53067;48.114;11.694;2023-01-19T15:50:35;3.10;54.50
16503;DHT22;53067;48.114;11.694;2023-01-19T15:53:04;3.00;54.10
16503;DHT22;53067;48.114;11.694;2023-01-19T15:55:31;2.90;54.10
16503;DHT22;53067;48.114;11.694;2023-01-19T15:57:59;2.90;53.10
16503;DHT22;53067;48.114;11.694;2023-01-19T16:00:31;3.00;52.70
16503;DHT22;53067;48.114;11.694;2023-01-19T16:03:00;3.00;53.10
16503;DHT22;53067;48.114;11.694;2023-01-19T16:05:28;3.00;53.00
16503;DHT22;53067;48.114;11.694;2023-01-19T16:07:56;3.00;52.80
16503;DHT22;53067;48.114;11.694;2023-01-19T16:10:24;3.00;52.80
16503;DHT22;53067;48.114;11.694;2023-01-19T16:12:51;2.90;53.40
16503;DHT22;53067;48.114;11.694;2023-01-19T16:15:19;2.90;54.90
16503;DHT22;53067;48.114;11.694;2023-01-19T16:17:48;2.90;55.60
16503;DHT22;53067;48.114;11.694;2023-01-19T16:20:16;2.80;56.40
16503;DHT22;53067;48.114;11.694;2023-01-19T16:22:43;2.80;57.10
16503;DHT22;53067;48.114;11.694;2023-01-19T16:25:11;2.80;57.50
16503;DHT22;53067;48.114;11.694;2023-01-19T16:27:39;2.80;58.00
16503;DHT22;53067;48.114;11.694;2023-01-19T16:30:08;2.70;58.30
16503;DHT22;53067;48.114;11.694;2023-01-19T16:32:36;2.70;58.10
16503;DHT22;53067;48.114;11.694;2023-01-19T16:35:04;2.70;58.30
16503;DHT22;53067;48.114;11.694;2023-01-19T16:37:32;2.70;58.40
16503;DHT22;53067;48.114;11.694;2023-01-19T16:39:59;2.70;58.50
16503;DHT22;53067;48.114;11.694;2023-01-19T16:42:27;2.70;58.50
16503;DHT22;53067;48.114;11.694;2023-01-19T16:44:54;2.70;58.90
16503;DHT22;53067;48.114;11.694;2023-01-19T16:47:22;2.70;59.00